sensor_id;sensor_type;location;lat;lon;timestamp;P1;durP1;ratioP1;P2;durP2;ratioP2
325;SDS011;150;52.352;14.058;2023-06-14T00:01:32;3.60;;;1.50;;
325;SDS011;150;52.352;14.058;2023-06-14T00:03:59;2.40;;;2.03;;
325;SDS011;150;52.352;14.058;2023-06-14T00:06:28;3.53;;;1.83;;
325;SDS011;150;52.352;14.058;2023-06-14T00:08:58;2.83;;;1.80;;
325;SDS011;150;52.352;14.058;2023-06-14T00:11:26;3.10;;;2.10;;
325;SDS011;150;52.352;14.058;2023-06-14T00:13:53;3.28;;;1.90;;
325;SDS011;150;52.352;14.058;2023-06-14T00:16:22;2.38;;;1.60;;
325;SDS011;150;52.352;14.058;2023-06-14T00:18:49;2.40;;;1.83;;
325;SDS011;150;52.352;14.058;2023-06-14T00:21:17;4.63;;;1.90;;
325;SDS011;150;52.352;14.058;2023-06-14T00:23:45;2.50;;;2.22;;
325;SDS011;150;52.352;14.058;2023-06-14T00:26:12;3.55;;;2.10;;
325;SDS011;150;52.352;14.058;2023-06-14T00:28:40;3.78;;;2.15;;
325;SDS011;150;52.352;14.058;2023-06-14T00:31:07;3.47;;;2.33;;
325;SDS011;150;52.352;14.058;2023-06-14T00:33:33;3.10;;;2.35;;
325;SDS011;150;52.352;14.058;2023-06-14T00:36:02;3.22;;;2.20;;
325;SDS011;150;52.352;14.058;2023-06-14T00:38:29;3.67;;;2.35;;
325;SDS011;150;52.352;14.058;2023-06-14T00:40:56;2.03;;;1.80;;
325;SDS011;150;52.352;14.058;2023-06-14T00:43:23;4.10;;;2.13;;
325;SDS011;150;52.352;14.058;2023-06-14T00:45:51;3.00;;;2.30;;
325;SDS011;150;52.352;14.058;2023-06-14T00:48:19;3.35;;;1.92;;
325;SDS011;150;52.352;14.058;2023-06-14T00:50:46;2.33;;;1.60;;
325;SDS011;150;52.352;14.058;2023-06-14T00:53:15;2.42;;;1.90;;
325;SDS011;150;52.352;14.058;2023-06-14T00:55:44;2.60;;;1.83;;
325;SDS011;150;52.352;14.058;2023-06-14T00:58:11;2.85;;;1.95;;
325;SDS011;150;52.352;14.058;2023-06-14T01:00:38;4.38;;;1.80;;
325;SDS011;150;52.352;14.058;2023-06-14T01:03:06;2.60;;;1.88;;
325;SDS011;150;52.352;14.058;2023-06-14T01:05:39;3.40;;;2.03;;
325;SDS011;150;52.352;14.058;2023-06-14T01:08:14;2.80;;;2.30;;
325;SDS011;150;52.352;14.058;2023-06-14T01:10:50;2.72;;;2.00;;
325;SDS011;150;52.352;14.058;2023-06-14T01:13:23;3.60;;;2.20;;
325;SDS011;150;52.352;14.058;2023-06-14T01:15:55;2.72;;;2.10;;
325;SDS011;150;52.352;14.058;2023-06-14T01:18:29;2.65;;;2.08;;
325;SDS011;150;52.352;14.058;2023-06-14T01:21:01;3.00;;;2.03;;
325;SDS011;150;52.352;14.058;2023-06-14T01:23:32;2.58;;;2.00;;
325;SDS011;150;52.352;14.058;2023-06-14T01:25:59;5.72;;;2.65;;
325;SDS011;150;52.352;14.058;2023-06-14T01:28:28;2.92;;;2.20;;
325;SDS011;150;52.352;14.058;2023-06-14T01:30:59;5.57;;;2.80;;
325;SDS011;150;52.352;14.058;2023-06-14T01:33:29;12.27;;;2.90;;
325;SDS011;150;52.352;14.058;2023-06-14T01:35:58;2.53;;;2.17;;
325;SDS011;150;52.352;14.058;2023-06-14T01:38:26;1.92;;;1.83;;
325;SDS011;150;52.352;14.058;2023-06-14T01:40:56;3.20;;;2.20;;
325;SDS011;150;52.352;14.058;2023-06-14T01:43:28;2.78;;;2.40;;
325;SDS011;150;52.352;14.058;2023-06-14T01:45:56;4.40;;;2.42;;
325;SDS011;150;52.352;14.058;2023-06-14T01:48:25;3.40;;;2.60;;
325;SDS011;150;52.352;14.058;2023-06-14T01:50:55;2.80;;;2.50;;
325;SDS011;150;52.352;14.058;2023-06-14T01:53:22;8.23;;;2.90;;
325;SDS011;150;52.352;14.058;2023-06-14T01:55:48;8.20;;;2.75;;
325;SDS011;150;52.352;14.058;2023-06-14T01:58:20;3.20;;;2.30;;
325;SDS011;150;52.352;14.058;2023-06-14T02:00:47;5.30;;;2.42;;
325;SDS011;150;52.352;14.058;2023-06-14T02:03:14;7.90;;;2.80;;
325;SDS011;150;52.352;14.058;2023-06-14T02:05:41;3.72;;;2.50;;
325;SDS011;150;52.352;14.058;2023-06-14T02:08:08;3.80;;;2.50;;
325;SDS011;150;52.352;14.058;2023-06-14T02:10:34;3.30;;;2.38;;
325;SDS011;150;52.352;14.058;2023-06-14T02:13:01;4.43;;;3.00;;
325;SDS011;150;52.352;14.058;2023-06-14T02:15:29;2.88;;;2.42;;
325;SDS011;150;52.352;14.058;2023-06-14T02:17:58;5.88;;;2.33;;
325;SDS011;150;52.352;14.058;2023-06-14T02:20:26;5.80;;;2.72;;
325;SDS011;150;52.352;14.058;2023-06-14T02:22:53;3.60;;;2.37;;
325;SDS011;150;52.352;14.058;2023-06-14T02:25:20;4.13;;;2.45;;
325;SDS011;150;52.352;14.058;2023-06-14T02:27:46;3.33;;;2.72;;
325;SDS011;150;52.352;14.058;2023-06-14T02:30:13;4.03;;;2.20;;
325;SDS011;150;52.352;14.058;2023-06-14T02:32:41;3.95;;;3.42;;
325;SDS011;150;52.352;14.058;2023-06-14T02:35:08;4.88;;;2.70;;
325;SDS011;150;52.352;14.058;2023-06-14T02:37:38;5.75;;;3.08;;
325;SDS011;150;52.352;14.058;2023-06-14T02:40:08;5.63;;;3.28;;
325;SDS011;150;52.352;14.058;2023-06-14T02:42:35;3.60;;;2.97;;
325;SDS011;150;52.352;14.058;2023-06-14T02:45:01;7.22;;;2.78;;
325;SDS011;150;52.352;14.058;2023-06-14T02:47:29;4.97;;;3.05;;
325;SDS011;150;52.352;14.058;2023-06-14T02:49:57;4.17;;;3.20;;
325;SDS011;150;52.352;14.058;2023-06-14T02:52:23;6.80;;;3.83;;
325;SDS011;150;52.352;14.058;2023-06-14T02:54:51;3.90;;;3.15;;
325;SDS011;150;52.352;14.058;2023-06-14T02:57:19;6.03;;;3.60;;
325;SDS011;150;52.352;14.058;2023-06-14T02:59:45;5.95;;;3.40;;
325;SDS011;150;52.352;14.058;2023-06-14T03:02:12;3.58;;;3.08;;
325;SDS011;150;52.352;14.058;2023-06-14T03:04:41;4.13;;;3.00;;
325;SDS011;150;52.352;14.058;2023-06-14T03:07:11;6.68;;;3.67;;
325;SDS011;150;52.352;14.058;2023-06-14T03:09:38;4.47;;;2.70;;
325;SDS011;150;52.352;14.058;2023-06-14T03:12:05;3.10;;;2.50;;
325;SDS011;150;52.352;14.058;2023-06-14T03:14:34;5.37;;;3.10;;
325;SDS011;150;52.352;14.058;2023-06-14T03:17:04;3.72;;;2.70;;
325;SDS011;150;52.352;14.058;2023-06-14T03:19:33;3.58;;;2.60;;
325;SDS011;150;52.352;14.058;2023-06-14T03:21:59;3.13;;;2.42;;
325;SDS011;150;52.352;14.058;2023-06-14T03:24:28;2.80;;;2.53;;
325;SDS011;150;52.352;14.058;2023-06-14T03:27:01;3.60;;;2.90;;
325;SDS011;150;52.352;14.058;2023-06-14T03:29:28;6.68;;;4.10;;
325;SDS011;150;52.352;14.058;2023-06-14T03:34:53;3.83;;;3.03;;
325;SDS011;150;52.352;14.058;2023-06-14T03:38:03;3.60;;;3.10;;
325;SDS011;150;52.352;14.058;2023-06-14T03:40:54;5.50;;;3.40;;
325;SDS011;150;52.352;14.058;2023-06-14T03:43:49;6.03;;;3.15;;
325;SDS011;150;52.352;14.058;2023-06-14T03:46:26;6.65;;;2.90;;
325;SDS011;150;52.352;14.058;2023-06-14T03:49:00;3.80;;;2.88;;
325;SDS011;150;52.352;14.058;2023-06-14T03:51:36;5.82;;;3.40;;
325;SDS011;150;52.352;14.058;2023-06-14T03:54:45;4.20;;;2.80;;
325;SDS011;150;52.352;14.058;2023-06-14T03:57:35;4.45;;;3.35;;
325;SDS011;150;52.352;14.058;2023-06-14T04:00:18;4.97;;;3.28;;
325;SDS011;150;52.352;14.058;2023-06-14T04:03:02;4.72;;;3.33;;
325;SDS011;150;52.352;14.058;2023-06-14T04:05:45;5.95;;;3.25;;
325;SDS011;150;52.352;14.058;2023-06-14T04:08:25;4.40;;;3.38;;
325;SDS011;150;52.352;14.058;2023-06-14T04:11:04;5.43;;;3.63;;
325;SDS011;150;52.352;14.058;2023-06-14T04:13:58;5.88;;;3.70;;
325;SDS011;150;52.352;14.058;2023-06-14T04:20:32;4.65;;;3.70;;
325;SDS011;150;52.352;14.058;2023-06-14T04:24:02;4.70;;;3.80;;
325;SDS011;150;52.352;14.058;2023-06-14T04:27:29;3.75;;;3.22;;
325;SDS011;150;52.352;14.058;2023-06-14T04:30:28;3.80;;;3.60;;
325;SDS011;150;52.352;14.058;2023-06-14T04:33:11;5.30;;;4.55;;
325;SDS011;150;52.352;14.058;2023-06-14T04:35:41;5.50;;;4.32;;
325;SDS011;150;52.352;14.058;2023-06-14T04:38:23;5.65;;;4.40;;
325;SDS011;150;52.352;14.058;2023-06-14T04:40:59;4.57;;;3.97;;
325;SDS011;150;52.352;14.058;2023-06-14T04:43:47;8.90;;;4.75;;
325;SDS011;150;52.352;14.058;2023-06-14T04:46:23;4.47;;;3.85;;
325;SDS011;150;52.352;14.058;2023-06-14T04:48:50;7.00;;;4.00;;
325;SDS011;150;52.352;14.058;2023-06-14T04:51:17;5.97;;;4.57;;
325;SDS011;150;52.352;14.058;2023-06-14T04:53:46;6.72;;;4.45;;
325;SDS011;150;52.352;14.058;2023-06-14T04:56:15;4.30;;;3.75;;
325;SDS011;150;52.352;14.058;2023-06-14T04:58:42;4.68;;;4.25;;
325;SDS011;150;52.352;14.058;2023-06-14T05:01:11;4.30;;;3.55;;
325;SDS011;150;52.352;14.058;2023-06-14T05:03:39;8.48;;;4.47;;
325;SDS011;150;52.352;14.058;2023-06-14T05:06:06;7.47;;;4.55;;
325;SDS011;150;52.352;14.058;2023-06-14T05:08:32;9.13;;;4.87;;
325;SDS011;150;52.352;14.058;2023-06-14T05:10:59;5.47;;;3.80;;
325;SDS011;150;52.352;14.058;2023-06-14T05:13:28;5.78;;;4.30;;
325;SDS011;150;52.352;14.058;2023-06-14T05:15:57;6.03;;;4.80;;
325;SDS011;150;52.352;14.058;2023-06-14T05:18:24;5.47;;;4.28;;
325;SDS011;150;52.352;14.058;2023-06-14T05:20:52;6.50;;;5.10;;
325;SDS011;150;52.352;14.058;2023-06-14T05:23:21;6.38;;;5.00;;
325;SDS011;150;52.352;14.058;2023-06-14T05:25:48;6.88;;;4.20;;
325;SDS011;150;52.352;14.058;2023-06-14T05:28:15;10.27;;;5.15;;
325;SDS011;150;52.352;14.058;2023-06-14T05:30:42;6.05;;;4.47;;
325;SDS011;150;52.352;14.058;2023-06-14T05:33:09;5.85;;;4.22;;
325;SDS011;150;52.352;14.058;2023-06-14T05:35:36;7.05;;;3.97;;
325;SDS011;150;52.352;14.058;2023-06-14T05:38:04;7.10;;;4.50;;
325;SDS011;150;52.352;14.058;2023-06-14T05:40:33;8.00;;;4.20;;
325;SDS011;150;52.352;14.058;2023-06-14T05:43:00;7.80;;;4.95;;
325;SDS011;150;52.352;14.058;2023-06-14T05:45:27;6.47;;;4.70;;
325;SDS011;150;52.352;14.058;2023-06-14T05:47:54;5.55;;;4.07;;
325;SDS011;150;52.352;14.058;2023-06-14T05:50:21;7.38;;;4.90;;
325;SDS011;150;52.352;14.058;2023-06-14T05:52:51;5.15;;;3.92;;
325;SDS011;150;52.352;14.058;2023-06-14T05:55:21;5.05;;;4.20;;
325;SDS011;150;52.352;14.058;2023-06-14T05:57:48;7.22;;;4.78;;
325;SDS011;150;52.352;14.058;2023-06-14T06:00:15;9.85;;;4.57;;
325;SDS011;150;52.352;14.058;2023-06-14T06:02:44;9.57;;;4.80;;
325;SDS011;150;52.352;14.058;2023-06-14T06:05:16;9.57;;;5.60;;
325;SDS011;150;52.352;14.058;2023-06-14T06:07:42;7.57;;;5.07;;
325;SDS011;150;52.352;14.058;2023-06-14T06:10:10;7.60;;;4.00;;
325;SDS011;150;52.352;14.058;2023-06-14T06:12:42;11.05;;;4.07;;
325;SDS011;150;52.352;14.058;2023-06-14T06:15:09;4.43;;;4.10;;
325;SDS011;150;52.352;14.058;2023-06-14T06:17:39;6.18;;;4.20;;
325;SDS011;150;52.352;14.058;2023-06-14T06:20:06;7.80;;;4.80;;
325;SDS011;150;52.352;14.058;2023-06-14T06:22:39;5.47;;;4.20;;
325;SDS011;150;52.352;14.058;2023-06-14T06:25:07;5.22;;;4.25;;
325;SDS011;150;52.352;14.058;2023-06-14T06:27:34;6.72;;;4.00;;
325;SDS011;150;52.352;14.058;2023-06-14T06:30:04;5.00;;;3.90;;
325;SDS011;150;52.352;14.058;2023-06-14T06:32:32;8.10;;;4.53;;
325;SDS011;150;52.352;14.058;2023-06-14T06:34:59;5.10;;;4.10;;
325;SDS011;150;52.352;14.058;2023-06-14T06:37:27;5.03;;;4.22;;
325;SDS011;150;52.352;14.058;2023-06-14T06:39:56;5.68;;;4.00;;
325;SDS011;150;52.352;14.058;2023-06-14T06:42:25;5.80;;;3.83;;
325;SDS011;150;52.352;14.058;2023-06-14T06:44:51;5.28;;;4.70;;
325;SDS011;150;52.352;14.058;2023-06-14T06:47:19;5.93;;;4.03;;
325;SDS011;150;52.352;14.058;2023-06-14T06:49:46;6.15;;;4.32;;
325;SDS011;150;52.352;14.058;2023-06-14T06:52:13;7.32;;;4.68;;
325;SDS011;150;52.352;14.058;2023-06-14T06:54:40;5.88;;;4.50;;
325;SDS011;150;52.352;14.058;2023-06-14T06:57:06;5.93;;;4.32;;
325;SDS011;150;52.352;14.058;2023-06-14T06:59:33;5.97;;;4.05;;
325;SDS011;150;52.352;14.058;2023-06-14T07:02:02;6.20;;;4.35;;
325;SDS011;150;52.352;14.058;2023-06-14T07:04:31;5.07;;;3.95;;
325;SDS011;150;52.352;14.058;2023-06-14T07:06:57;6.07;;;4.57;;
325;SDS011;150;52.352;14.058;2023-06-14T07:09:24;7.10;;;4.15;;
325;SDS011;150;52.352;14.058;2023-06-14T07:11:51;5.75;;;4.28;;
325;SDS011;150;52.352;14.058;2023-06-14T07:14:20;7.30;;;4.30;;
325;SDS011;150;52.352;14.058;2023-06-14T07:16:50;4.10;;;3.60;;
325;SDS011;150;52.352;14.058;2023-06-14T07:19:17;5.13;;;4.40;;
325;SDS011;150;52.352;14.058;2023-06-14T07:21:44;8.63;;;4.43;;
325;SDS011;150;52.352;14.058;2023-06-14T07:24:11;5.30;;;3.92;;
325;SDS011;150;52.352;14.058;2023-06-14T07:26:38;5.00;;;3.55;;
325;SDS011;150;52.352;14.058;2023-06-14T07:29:04;10.00;;;3.70;;
325;SDS011;150;52.352;14.058;2023-06-14T07:31:31;7.35;;;4.65;;
325;SDS011;150;52.352;14.058;2023-06-14T07:33:58;5.00;;;3.97;;
325;SDS011;150;52.352;14.058;2023-06-14T07:36:25;6.47;;;4.40;;
325;SDS011;150;52.352;14.058;2023-06-14T07:38:55;5.38;;;3.85;;
325;SDS011;150;52.352;14.058;2023-06-14T07:41:24;4.15;;;3.85;;
325;SDS011;150;52.352;14.058;2023-06-14T07:43:52;5.40;;;4.70;;
325;SDS011;150;52.352;14.058;2023-06-14T07:46:18;7.15;;;4.68;;
325;SDS011;150;52.352;14.058;2023-06-14T07:48:45;4.85;;;4.25;;
325;SDS011;150;52.352;14.058;2023-06-14T07:51:11;7.25;;;3.97;;
325;SDS011;150;52.352;14.058;2023-06-14T07:53:40;6.18;;;4.07;;
325;SDS011;150;52.352;14.058;2023-06-14T07:56:08;4.68;;;3.92;;
325;SDS011;150;52.352;14.058;2023-06-14T07:58:35;7.03;;;4.57;;
325;SDS011;150;52.352;14.058;2023-06-14T08:01:01;5.63;;;3.65;;
325;SDS011;150;52.352;14.058;2023-06-14T08:03:31;5.68;;;3.90;;
325;SDS011;150;52.352;14.058;2023-06-14T08:05:57;13.43;;;5.53;;
325;SDS011;150;52.352;14.058;2023-06-14T08:08:25;5.55;;;3.88;;
325;SDS011;150;52.352;14.058;2023-06-14T08:10:52;5.17;;;4.27;;
325;SDS011;150;52.352;14.058;2023-06-14T08:13:20;5.15;;;3.97;;
325;SDS011;150;52.352;14.058;2023-06-14T08:15:46;5.15;;;4.20;;
325;SDS011;150;52.352;14.058;2023-06-14T08:18:13;5.90;;;4.23;;
325;SDS011;150;52.352;14.058;2023-06-14T08:20:40;4.38;;;3.83;;
325;SDS011;150;52.352;14.058;2023-06-14T08:23:06;6.22;;;5.90;;
325;SDS011;150;52.352;14.058;2023-06-14T08:25:34;7.97;;;4.47;;
325;SDS011;150;52.352;14.058;2023-06-14T08:28:00;5.00;;;4.10;;
325;SDS011;150;52.352;14.058;2023-06-14T08:30:28;4.95;;;3.67;;
325;SDS011;150;52.352;14.058;2023-06-14T08:36:35;7.35;;;3.35;;
325;SDS011;150;52.352;14.058;2023-06-14T08:45:20;5.50;;;3.00;;
325;SDS011;150;52.352;14.058;2023-06-14T08:47:58;4.25;;;2.85;;
325;SDS011;150;52.352;14.058;2023-06-14T08:50:38;3.55;;;2.75;;
325;SDS011;150;52.352;14.058;2023-06-14T08:53:31;3.95;;;2.88;;
325;SDS011;150;52.352;14.058;2023-06-14T08:56:34;6.13;;;2.10;;
325;SDS011;150;52.352;14.058;2023-06-14T08:59:14;3.95;;;2.45;;
325;SDS011;150;52.352;14.058;2023-06-14T09:01:43;6.70;;;5.20;;
325;SDS011;150;52.352;14.058;2023-06-14T09:04:14;5.50;;;3.60;;
325;SDS011;150;52.352;14.058;2023-06-14T09:06:40;3.15;;;2.30;;
325;SDS011;150;52.352;14.058;2023-06-14T09:09:07;3.90;;;2.20;;
325;SDS011;150;52.352;14.058;2023-06-14T09:11:34;5.28;;;2.70;;
325;SDS011;150;52.352;14.058;2023-06-14T09:14:01;4.55;;;2.80;;
325;SDS011;150;52.352;14.058;2023-06-14T09:16:28;2.30;;;1.85;;
325;SDS011;150;52.352;14.058;2023-06-14T09:18:55;3.22;;;2.67;;
325;SDS011;150;52.352;14.058;2023-06-14T09:21:26;2.83;;;2.10;;
325;SDS011;150;52.352;14.058;2023-06-14T09:23:52;4.90;;;2.33;;
325;SDS011;150;52.352;14.058;2023-06-14T09:26:19;5.15;;;2.45;;
325;SDS011;150;52.352;14.058;2023-06-14T09:28:47;3.50;;;2.88;;
325;SDS011;150;52.352;14.058;2023-06-14T09:31:15;2.70;;;1.80;;
325;SDS011;150;52.352;14.058;2023-06-14T09:33:43;3.50;;;2.05;;
325;SDS011;150;52.352;14.058;2023-06-14T09:36:13;5.82;;;2.38;;
325;SDS011;150;52.352;14.058;2023-06-14T09:38:44;5.10;;;2.80;;
325;SDS011;150;52.352;14.058;2023-06-14T09:41:21;2.70;;;2.00;;
325;SDS011;150;52.352;14.058;2023-06-14T09:43:57;3.20;;;1.80;;
325;SDS011;150;52.352;14.058;2023-06-14T09:46:25;3.58;;;2.40;;
325;SDS011;150;52.352;14.058;2023-06-14T09:48:53;3.15;;;2.30;;
325;SDS011;150;52.352;14.058;2023-06-14T09:51:20;4.88;;;2.03;;
325;SDS011;150;52.352;14.058;2023-06-14T09:53:49;5.90;;;2.00;;
325;SDS011;150;52.352;14.058;2023-06-14T09:56:23;3.00;;;1.95;;
325;SDS011;150;52.352;14.058;2023-06-14T09:59:18;3.00;;;1.90;;
325;SDS011;150;52.352;14.058;2023-06-14T10:02:08;2.38;;;1.85;;
325;SDS011;150;52.352;14.058;2023-06-14T10:04:44;3.10;;;2.30;;
325;SDS011;150;52.352;14.058;2023-06-14T10:07:38;5.60;;;2.60;;
325;SDS011;150;52.352;14.058;2023-06-14T10:10:16;4.90;;;2.63;;
325;SDS011;150;52.352;14.058;2023-06-14T10:13:01;2.38;;;1.75;;
325;SDS011;150;52.352;14.058;2023-06-14T10:15:28;5.28;;;2.40;;
325;SDS011;150;52.352;14.058;2023-06-14T10:18:06;10.75;;;8.77;;
325;SDS011;150;52.352;14.058;2023-06-14T10:20:48;4.30;;;2.33;;
325;SDS011;150;52.352;14.058;2023-06-14T10:23:20;3.83;;;1.90;;
325;SDS011;150;52.352;14.058;2023-06-14T10:25:50;3.00;;;2.05;;
325;SDS011;150;52.352;14.058;2023-06-14T10:28:22;16.60;;;4.05;;
325;SDS011;150;52.352;14.058;2023-06-14T10:31:02;4.63;;;2.65;;
325;SDS011;150;52.352;14.058;2023-06-14T10:33:32;3.85;;;2.20;;
325;SDS011;150;52.352;14.058;2023-06-14T10:36:09;4.00;;;2.15;;
325;SDS011;150;52.352;14.058;2023-06-14T10:38:59;13.27;;;3.28;;
325;SDS011;150;52.352;14.058;2023-06-14T10:41:29;4.30;;;2.40;;
325;SDS011;150;52.352;14.058;2023-06-14T10:44:10;4.30;;;2.85;;
325;SDS011;150;52.352;14.058;2023-06-14T10:46:58;2.60;;;1.90;;
325;SDS011;150;52.352;14.058;2023-06-14T10:49:36;4.80;;;2.60;;
325;SDS011;150;52.352;14.058;2023-06-14T10:52:07;4.78;;;3.22;;
325;SDS011;150;52.352;14.058;2023-06-14T10:57:30;4.67;;;2.23;;
325;SDS011;150;52.352;14.058;2023-06-14T10:59:57;3.17;;;2.47;;
325;SDS011;150;52.352;14.058;2023-06-14T11:02:36;2.30;;;1.90;;
325;SDS011;150;52.352;14.058;2023-06-14T11:05:16;5.15;;;2.45;;
325;SDS011;150;52.352;14.058;2023-06-14T11:07:53;3.30;;;2.20;;
325;SDS011;150;52.352;14.058;2023-06-14T11:10:35;4.70;;;2.30;;
325;SDS011;150;52.352;14.058;2023-06-14T11:13:07;3.15;;;2.25;;
325;SDS011;150;52.352;14.058;2023-06-14T11:15:36;3.75;;;2.60;;
325;SDS011;150;52.352;14.058;2023-06-14T11:18:04;4.82;;;2.42;;
325;SDS011;150;52.352;14.058;2023-06-14T11:20:32;5.57;;;1.85;;
325;SDS011;150;52.352;14.058;2023-06-14T11:23:00;6.60;;;1.90;;
325;SDS011;150;52.352;14.058;2023-06-14T11:25:28;3.60;;;2.30;;
325;SDS011;150;52.352;14.058;2023-06-14T11:28:07;4.40;;;2.20;;
325;SDS011;150;52.352;14.058;2023-06-14T11:30:34;2.80;;;1.90;;
325;SDS011;150;52.352;14.058;2023-06-14T11:33:01;5.60;;;2.70;;
325;SDS011;150;52.352;14.058;2023-06-14T11:35:30;3.45;;;2.65;;
325;SDS011;150;52.352;14.058;2023-06-14T11:37:56;3.93;;;2.70;;
325;SDS011;150;52.352;14.058;2023-06-14T11:40:41;3.40;;;2.63;;
325;SDS011;150;52.352;14.058;2023-06-14T11:43:09;3.00;;;2.00;;
325;SDS011;150;52.352;14.058;2023-06-14T11:45:37;2.67;;;1.83;;
325;SDS011;150;52.352;14.058;2023-06-14T11:48:08;4.10;;;2.40;;
325;SDS011;150;52.352;14.058;2023-06-14T11:50:40;2.42;;;1.95;;
325;SDS011;150;52.352;14.058;2023-06-14T11:53:07;4.30;;;2.90;;
325;SDS011;150;52.352;14.058;2023-06-14T11:55:35;5.10;;;3.28;;
325;SDS011;150;52.352;14.058;2023-06-14T12:01:35;3.33;;;2.10;;
325;SDS011;150;52.352;14.058;2023-06-14T12:04:07;5.32;;;2.10;;
325;SDS011;150;52.352;14.058;2023-06-14T12:06:42;5.90;;;2.10;;
325;SDS011;150;52.352;14.058;2023-06-14T12:09:10;4.87;;;2.40;;
325;SDS011;150;52.352;14.058;2023-06-14T12:12:01;2.40;;;1.88;;
325;SDS011;150;52.352;14.058;2023-06-14T12:14:28;4.22;;;2.08;;
325;SDS011;150;52.352;14.058;2023-06-14T12:17:04;3.40;;;1.88;;
325;SDS011;150;52.352;14.058;2023-06-14T12:19:32;3.15;;;2.05;;
325;SDS011;150;52.352;14.058;2023-06-14T12:21:59;2.70;;;2.10;;
325;SDS011;150;52.352;14.058;2023-06-14T12:24:29;3.08;;;1.98;;
325;SDS011;150;52.352;14.058;2023-06-14T12:27:00;8.10;;;2.53;;
325;SDS011;150;52.352;14.058;2023-06-14T12:29:32;6.63;;;2.20;;
325;SDS011;150;52.352;14.058;2023-06-14T12:32:00;3.60;;;2.30;;
325;SDS011;150;52.352;14.058;2023-06-14T12:34:28;2.97;;;2.10;;
325;SDS011;150;52.352;14.058;2023-06-14T12:36:57;5.28;;;2.10;;
325;SDS011;150;52.352;14.058;2023-06-14T12:39:23;2.77;;;1.93;;
325;SDS011;150;52.352;14.058;2023-06-14T12:41:52;3.50;;;2.00;;
325;SDS011;150;52.352;14.058;2023-06-14T12:44:19;4.35;;;2.00;;
325;SDS011;150;52.352;14.058;2023-06-14T12:46:46;2.88;;;1.80;;
325;SDS011;150;52.352;14.058;2023-06-14T12:49:13;4.77;;;2.40;;
325;SDS011;150;52.352;14.058;2023-06-14T12:51:41;3.33;;;2.10;;
325;SDS011;150;52.352;14.058;2023-06-14T12:54:10;4.60;;;2.13;;
325;SDS011;150;52.352;14.058;2023-06-14T12:56:42;6.75;;;2.97;;
325;SDS011;150;52.352;14.058;2023-06-14T12:59:16;3.47;;;2.10;;
325;SDS011;150;52.352;14.058;2023-06-14T13:03:48;5.00;;;2.40;;
325;SDS011;150;52.352;14.058;2023-06-14T13:06:07;4.10;;;2.10;;
325;SDS011;150;52.352;14.058;2023-06-14T13:08:49;6.40;;;2.30;;
325;SDS011;150;52.352;14.058;2023-06-14T13:14:27;4.53;;;2.20;;
325;SDS011;150;52.352;14.058;2023-06-14T13:17:26;4.60;;;1.90;;
325;SDS011;150;52.352;14.058;2023-06-14T13:24:02;6.03;;;2.53;;
325;SDS011;150;52.352;14.058;2023-06-14T13:26:31;6.37;;;4.47;;
325;SDS011;150;52.352;14.058;2023-06-14T13:29:08;5.13;;;3.03;;
325;SDS011;150;52.352;14.058;2023-06-14T13:31:35;3.50;;;2.30;;
325;SDS011;150;52.352;14.058;2023-06-14T13:34:12;4.55;;;2.97;;
325;SDS011;150;52.352;14.058;2023-06-14T13:36:55;8.48;;;3.08;;
325;SDS011;150;52.352;14.058;2023-06-14T13:42:33;6.90;;;2.65;;
325;SDS011;150;52.352;14.058;2023-06-14T13:45:34;3.58;;;2.20;;
325;SDS011;150;52.352;14.058;2023-06-14T13:48:01;4.82;;;2.85;;
325;SDS011;150;52.352;14.058;2023-06-14T13:50:27;3.72;;;2.30;;
325;SDS011;150;52.352;14.058;2023-06-14T13:52:57;4.15;;;2.10;;
325;SDS011;150;52.352;14.058;2023-06-14T13:55:28;3.00;;;2.20;;
325;SDS011;150;52.352;14.058;2023-06-14T13:57:57;4.45;;;2.78;;
325;SDS011;150;52.352;14.058;2023-06-14T14:00:24;3.93;;;1.93;;
325;SDS011;150;52.352;14.058;2023-06-14T14:02:53;4.80;;;2.20;;
325;SDS011;150;52.352;14.058;2023-06-14T14:05:36;3.13;;;2.40;;
325;SDS011;150;52.352;14.058;2023-06-14T14:22:22;3.53;;;2.00;;
325;SDS011;150;52.352;14.058;2023-06-14T14:24:58;3.88;;;2.15;;
325;SDS011;150;52.352;14.058;2023-06-14T14:27:34;4.32;;;2.65;;
325;SDS011;150;52.352;14.058;2023-06-14T14:30:15;4.03;;;2.45;;
325;SDS011;150;52.352;14.058;2023-06-14T14:32:47;3.88;;;2.83;;
325;SDS011;150;52.352;14.058;2023-06-14T14:35:14;3.07;;;2.40;;
325;SDS011;150;52.352;14.058;2023-06-14T14:43:51;3.30;;;1.80;;
325;SDS011;150;52.352;14.058;2023-06-14T14:46:26;3.03;;;2.13;;
325;SDS011;150;52.352;14.058;2023-06-14T14:54:13;7.68;;;3.22;;
325;SDS011;150;52.352;14.058;2023-06-14T14:56:43;4.65;;;2.38;;
325;SDS011;150;52.352;14.058;2023-06-14T14:59:34;3.58;;;1.90;;
325;SDS011;150;52.352;14.058;2023-06-14T15:02:37;3.28;;;2.20;;
325;SDS011;150;52.352;14.058;2023-06-14T15:06:13;4.90;;;2.38;;
325;SDS011;150;52.352;14.058;2023-06-14T15:09:05;4.20;;;2.00;;
325;SDS011;150;52.352;14.058;2023-06-14T15:11:39;5.10;;;2.47;;
325;SDS011;150;52.352;14.058;2023-06-14T15:14:10;3.97;;;2.70;;
325;SDS011;150;52.352;14.058;2023-06-14T15:16:48;8.23;;;2.50;;
325;SDS011;150;52.352;14.058;2023-06-14T15:19:34;3.10;;;1.92;;
325;SDS011;150;52.352;14.058;2023-06-14T15:22:24;3.13;;;2.20;;
325;SDS011;150;52.352;14.058;2023-06-14T15:25:29;5.05;;;1.90;;
325;SDS011;150;52.352;14.058;2023-06-14T15:28:02;5.43;;;2.10;;
325;SDS011;150;52.352;14.058;2023-06-14T15:31:05;3.50;;;2.40;;
325;SDS011;150;52.352;14.058;2023-06-14T15:39:15;4.55;;;2.45;;
325;SDS011;150;52.352;14.058;2023-06-14T16:00:41;3.78;;;2.70;;
325;SDS011;150;52.352;14.058;2023-06-14T16:03:19;4.00;;;2.60;;
325;SDS011;150;52.352;14.058;2023-06-14T16:07:01;4.07;;;2.40;;
325;SDS011;150;52.352;14.058;2023-06-14T16:10:45;8.17;;;2.90;;
325;SDS011;150;52.352;14.058;2023-06-14T16:13:56;8.50;;;2.30;;
325;SDS011;150;52.352;14.058;2023-06-14T16:16:56;7.68;;;2.97;;
325;SDS011;150;52.352;14.058;2023-06-14T16:19:41;3.00;;;1.80;;
325;SDS011;150;52.352;14.058;2023-06-14T16:22:27;5.30;;;2.20;;
325;SDS011;150;52.352;14.058;2023-06-14T16:35:50;4.55;;;3.20;;
325;SDS011;150;52.352;14.058;2023-06-14T16:38:19;5.93;;;4.10;;
325;SDS011;150;52.352;14.058;2023-06-14T16:40:52;2.97;;;2.80;;
325;SDS011;150;52.352;14.058;2023-06-14T16:44:00;3.38;;;2.50;;
325;SDS011;150;52.352;14.058;2023-06-14T16:46:47;6.65;;;2.50;;
325;SDS011;150;52.352;14.058;2023-06-14T17:00:07;4.43;;;2.47;;
325;SDS011;150;52.352;14.058;2023-06-14T17:03:00;4.88;;;3.10;;
325;SDS011;150;52.352;14.058;2023-06-14T17:06:00;7.05;;;2.58;;
325;SDS011;150;52.352;14.058;2023-06-14T17:09:37;3.08;;;1.90;;
325;SDS011;150;52.352;14.058;2023-06-14T17:26:37;2.78;;;2.38;;
325;SDS011;150;52.352;14.058;2023-06-14T17:30:07;6.78;;;2.28;;
325;SDS011;150;52.352;14.058;2023-06-14T17:42:31;5.50;;;2.17;;
325;SDS011;150;52.352;14.058;2023-06-14T17:45:33;2.57;;;1.97;;
325;SDS011;150;52.352;14.058;2023-06-14T17:49:04;3.95;;;2.00;;
325;SDS011;150;52.352;14.058;2023-06-14T17:51:51;3.25;;;2.60;;
325;SDS011;150;52.352;14.058;2023-06-14T17:54:28;3.83;;;2.03;;
325;SDS011;150;52.352;14.058;2023-06-14T17:57:00;6.60;;;2.47;;
325;SDS011;150;52.352;14.058;2023-06-14T18:07:11;7.53;;;2.65;;
325;SDS011;150;52.352;14.058;2023-06-14T18:37:54;4.78;;;2.72;;
325;SDS011;150;52.352;14.058;2023-06-14T18:40:21;5.38;;;3.30;;
325;SDS011;150;52.352;14.058;2023-06-14T18:45:02;8.25;;;3.80;;
325;SDS011;150;52.352;14.058;2023-06-14T18:46:27;3.70;;;2.63;;
325;SDS011;150;52.352;14.058;2023-06-14T18:51:59;3.03;;;2.20;;
325;SDS011;150;52.352;14.058;2023-06-14T19:06:15;5.82;;;2.55;;
325;SDS011;150;52.352;14.058;2023-06-14T19:47:24;3.80;;;2.28;;
325;SDS011;150;52.352;14.058;2023-06-14T19:50:05;2.83;;;2.10;;
325;SDS011;150;52.352;14.058;2023-06-14T19:53:27;4.18;;;2.70;;